createdAt,value
2023-01-09T00:08:23.387Z,7.30
2023-01-09T00:10:50.871Z,7.40
2023-01-09T00:13:18.251Z,7.40
2023-01-09T00:15:45.741Z,7.40
2023-01-09T00:18:13.054Z,7.40
2023-01-09T00:20:40.530Z,7.40
2023-01-09T00:23:07.898Z,7.40
2023-01-09T00:25:35.670Z,7.50
2023-01-09T00:28:02.977Z,7.40
2023-01-09T00:30:30.189Z,7.40
2023-01-09T00:32:57.216Z,7.40
2023-01-09T00:40:21.212Z,7.50
2023-01-09T00:42:56.223Z,7.50
2023-01-09T00:48:03.846Z,7.50
2023-01-09T00:50:33.160Z,7.50
2023-01-09T00:53:10.899Z,7.50
2023-01-09T01:00:34.258Z,7.60
2023-01-09T01:03:01.406Z,7.60
2023-01-09T01:05:47.184Z,7.60
2023-01-09T01:08:16.958Z,7.70
2023-01-09T01:10:45.160Z,7.60
2023-01-09T01:13:12.832Z,7.60
2023-01-09T01:15:42.368Z,7.70
2023-01-09T01:18:11.454Z,7.70
2023-01-09T01:20:42.236Z,7.70
2023-01-09T01:23:09.611Z,7.80
2023-01-09T01:25:41.700Z,7.80
2023-01-09T01:28:10.332Z,7.80
2023-01-09T01:30:42.124Z,7.80
2023-01-09T01:33:10.452Z,7.70
2023-01-09T01:35:37.904Z,7.80
2023-01-09T01:38:04.976Z,7.70
2023-01-09T01:40:32.511Z,7.80
2023-01-09T01:45:29.720Z,7.80
2023-01-09T01:50:45.402Z,7.80
2023-01-09T02:03:35.139Z,7.70
2023-01-09T02:06:04.824Z,7.80
2023-01-09T02:13:28.369Z,7.90
2023-01-09T02:18:47.022Z,7.70
2023-01-09T02:21:48.900Z,7.80
2023-01-09T02:30:17.207Z,7.90
2023-01-09T02:33:04.960Z,7.90
2023-01-09T02:35:47.570Z,7.90
2023-01-09T02:38:34.047Z,7.90
2023-01-09T02:41:30.649Z,7.90
2023-01-09T02:44:31.145Z,7.90
2023-01-09T02:47:02.455Z,7.90
2023-01-09T02:49:30.489Z,7.80
2023-01-09T02:52:14.574Z,7.70
2023-01-09T02:55:03.300Z,7.80
2023-01-09T02:57:51.372Z,7.70
2023-01-09T03:01:01.146Z,7.70
2023-01-09T03:04:08.841Z,7.70
2023-01-09T03:07:11.758Z,7.70
2023-01-09T03:09:41.497Z,7.70
2023-01-09T03:12:18.239Z,7.70
2023-01-09T03:14:53.412Z,7.70
2023-01-09T03:17:35.117Z,7.70
2023-01-09T03:20:06.944Z,7.70
2023-01-09T03:22:33.864Z,7.70
2023-01-09T03:25:00.853Z,7.70
2023-01-09T03:27:27.951Z,7.80
2023-01-09T03:29:56.558Z,7.80
2023-01-09T03:32:23.591Z,7.80
2023-01-09T03:34:50.541Z,7.80
2023-01-09T03:37:17.488Z,7.80
2023-01-09T03:39:44.483Z,7.90
2023-01-09T03:42:11.508Z,7.90
2023-01-09T03:44:38.483Z,7.90
2023-01-09T03:47:05.420Z,7.80
2023-01-09T03:51:59.766Z,7.70
2023-01-09T03:54:26.744Z,7.70
2023-01-09T03:56:53.753Z,7.60
2023-01-09T03:59:20.863Z,7.60
2023-01-09T04:01:47.877Z,7.70
2023-01-09T04:06:42.463Z,7.60
2023-01-09T04:09:09.540Z,7.70
2023-01-09T04:11:36.478Z,7.70
2023-01-09T06:19:28.698Z,6.00
2023-01-09T06:21:55.702Z,6.00
2023-01-09T06:24:22.708Z,6.00
2023-01-09T06:26:49.653Z,5.90
2023-01-09T06:29:16.658Z,5.80
2023-01-09T06:31:43.601Z,5.90
2023-01-09T06:34:10.656Z,5.80
2023-01-09T06:36:37.603Z,5.70
2023-01-09T06:39:04.616Z,5.70
2023-01-09T06:41:31.612Z,5.60
2023-01-09T06:58:43.090Z,5.50
2023-01-09T07:03:37.615Z,5.60
2023-01-09T07:06:05.067Z,5.70
2023-01-09T07:11:00.035Z,5.70
2023-01-09T07:52:47.858Z,6.00
2023-01-09T07:55:17.374Z,6.00
2023-01-09T07:57:50.152Z,6.10
2023-01-09T08:00:18.537Z,6.10
2023-01-09T08:02:45.490Z,6.10
2023-01-09T08:05:14.834Z,6.10
2023-01-09T08:07:42.886Z,6.10
2023-01-09T08:10:10.696Z,6.10
2023-01-09T08:12:37.803Z,6.10
2023-01-09T08:15:05.300Z,6.10
2023-01-09T08:17:32.351Z,6.20
2023-01-09T08:19:59.265Z,6.20
2023-01-09T08:22:26.274Z,6.30
2023-01-09T08:24:53.203Z,6.20
2023-01-09T08:27:20.187Z,6.30
2023-01-09T08:29:47.136Z,6.40
2023-01-09T09:02:21.008Z,8.40
2023-01-09T09:04:51.620Z,8.60
2023-01-09T16:08:40.734Z,5.60
2023-01-09T16:11:10.997Z,5.70
2023-01-09T16:16:13.675Z,5.60
2023-01-09T16:46:41.536Z,5.70
2023-01-09T18:51:31.935Z,5.60
2023-01-09T18:53:58.963Z,5.50
2023-01-09T18:56:26.322Z,5.40
2023-01-09T18:58:57.995Z,5.40
2023-01-09T19:01:29.493Z,5.30
2023-01-09T19:03:58.349Z,5.30
2023-01-09T19:06:27.472Z,5.30
2023-01-09T19:08:55.049Z,5.40
2023-01-09T19:11:22.369Z,5.40
2023-01-09T19:13:50.612Z,5.40
2023-01-09T19:16:18.575Z,5.40
2023-01-09T19:18:45.945Z,5.30
2023-01-09T19:21:20.348Z,5.30
2023-01-09T19:23:48.445Z,5.30
2023-01-09T19:26:27.958Z,5.30
2023-01-09T19:28:58.169Z,5.30
2023-01-09T19:31:28.292Z,5.20
2023-01-09T19:33:56.861Z,5.20
2023-01-09T19:36:24.223Z,5.20
2023-01-09T19:38:57.032Z,5.20
2023-01-09T19:41:24.035Z,5.20
2023-01-09T19:43:51.132Z,5.20
2023-01-09T19:46:24.121Z,5.10
2023-01-09T19:48:52.737Z,5.10
2023-01-09T19:51:21.558Z,5.10
2023-01-09T19:53:54.474Z,5.10
2023-01-09T19:56:24.431Z,5.20
2023-01-09T19:58:58.769Z,5.20
2023-01-09T20:01:36.110Z,5.10
2023-01-09T20:04:10.046Z,5.10
2023-01-09T20:06:41.696Z,5.10
2023-01-09T20:09:11.143Z,5.10
2023-01-09T20:11:44.662Z,5.10
2023-01-09T20:14:14.207Z,5.10
2023-01-09T20:16:42.549Z,5.10
2023-01-09T20:19:12.482Z,5.10
2023-01-09T20:21:39.629Z,5.10
2023-01-09T20:24:07.753Z,5.10
2023-01-09T20:26:37.043Z,5.10
2023-01-09T20:29:04.800Z,5.10
2023-01-09T20:31:32.992Z,5.10
2023-01-09T20:34:00.571Z,5.20
2023-01-09T20:36:30.273Z,5.20
2023-01-09T20:39:00.459Z,5.20
2023-01-09T20:41:29.416Z,5.20
2023-01-09T20:44:00.445Z,5.20
2023-01-09T20:46:35.323Z,5.20
2023-01-09T20:49:03.514Z,5.20
2023-01-09T20:51:31.273Z,5.20
2023-01-09T20:53:58.737Z,5.10
2023-01-09T20:56:28.036Z,5.20
2023-01-09T20:58:56.367Z,5.20
2023-01-09T21:01:24.380Z,5.20
2023-01-09T21:03:53.166Z,5.10
2023-01-09T21:06:23.088Z,5.10
2023-01-09T21:08:53.004Z,5.10
2023-01-09T21:11:21.952Z,5.10
2023-01-09T21:13:49.800Z,5.10
2023-01-09T21:16:21.444Z,5.10
2023-01-09T21:18:49.127Z,5.10
2023-01-09T21:21:24.236Z,5.10
2023-01-09T21:23:54.205Z,5.10
2023-01-09T21:26:26.034Z,5.20
2023-01-09T21:28:55.304Z,5.20
2023-01-09T21:31:28.599Z,5.20
2023-01-09T21:33:55.571Z,5.20
2023-01-09T21:36:23.154Z,5.30
2023-01-09T21:38:53.433Z,5.30
2023-01-09T21:41:40.092Z,5.30
2023-01-09T21:44:30.079Z,5.30
2023-01-09T21:46:59.785Z,5.30
2023-01-09T21:49:30.876Z,5.20
2023-01-09T21:51:57.898Z,5.30
2023-01-09T21:54:25.286Z,5.30
2023-01-09T21:56:52.999Z,5.30
2023-01-09T21:59:19.983Z,5.20
2023-01-09T22:01:49.041Z,5.10
2023-01-09T22:04:19.359Z,5.10
2023-01-09T22:06:46.410Z,5.20
2023-01-09T22:09:13.957Z,5.30
2023-01-09T22:11:43.209Z,5.30
2023-01-09T22:14:16.992Z,5.30
2023-01-09T22:16:47.512Z,5.20
2023-01-09T22:19:19.085Z,5.30
2023-01-09T22:21:46.738Z,5.30
2023-01-09T22:24:16.845Z,5.30
2023-01-09T22:26:44.719Z,5.40
2023-01-09T22:29:11.680Z,5.40
2023-01-09T22:31:40.030Z,5.40
2023-01-09T22:34:07.260Z,5.40
2023-01-09T22:36:34.299Z,5.40
2023-01-09T22:39:01.429Z,5.40
2023-01-09T22:41:32.296Z,5.30
2023-01-09T22:43:59.826Z,5.30
2023-01-09T22:46:26.841Z,5.30
2023-01-09T22:48:53.845Z,5.30
2023-01-09T22:51:21.852Z,5.20
2023-01-09T22:53:49.577Z,5.30
2023-01-09T22:56:20.447Z,5.30
2023-01-09T22:58:52.792Z,5.30
2023-01-09T23:01:20.997Z,5.30
2023-01-09T23:03:48.391Z,5.30
2023-01-09T23:06:19.352Z,5.40
2023-01-09T23:08:47.795Z,5.40
2023-01-09T23:11:40.736Z,5.30
2023-01-09T23:14:07.684Z,5.40
2023-01-09T23:16:34.806Z,5.30
2023-01-09T23:19:02.020Z,5.30
2023-01-09T23:21:29.027Z,5.30
2023-01-09T23:23:55.998Z,5.30
2023-01-09T23:26:22.942Z,5.30
2023-01-09T23:28:49.980Z,5.30
2023-01-09T23:31:16.926Z,5.20
2023-01-09T23:33:43.920Z,5.20
2023-01-09T23:36:10.891Z,5.20
2023-01-09T23:38:39.020Z,5.20
2023-01-09T23:41:07.249Z,5.20
2023-01-09T23:43:34.215Z,5.20
2023-01-09T23:46:01.605Z,5.20
2023-01-09T23:48:28.655Z,5.20
2023-01-09T23:50:55.664Z,5.20
2023-01-09T23:53:23.358Z,5.20
2023-01-09T23:55:55.170Z,5.20
2023-01-09T23:58:22.430Z,5.30
